Latest Weather Observations for Charlton

IDV60801

Issued at 8:05 pm EST Monday 28 July 2014 (issued every 30 minutes, with the page automatically refreshed every 10 minutes)

About weather observations | Map of weather stations | Latest weather observations for VIC | Other Formats
Station Details ID: 080128 Name: CHARLTON Lat: -36.28 Lon: 143.33 Height: 131.7 m
Data from the previous 72 hours. | See also: Recent months at Charlton
Date/Time
EST
Temp
°C
App
Temp
°C
Dew
Point
Rel
Hum
%
Delta-T
°C
Wind Press
QNH
hPa
Press
MSL
hPa
Rain
since 9 am
mm
Dir
 
Spd
km/h
Gust
km/h
Spd
kts
Gust
kts
28/08:00pm 10.1 6.4 6.4 78 1.7 NNW 15 20 8 11 1015.2 1015.4 0.0
28/07:30pm 11.0 7.1 6.9 76 2.0 NNW 17 20 9 11 1014.9 - 0.0
28/07:00pm 11.9 9.0 8.0 77 1.9 N 13 20 7 11 1014.8 1015.0 0.0
28/06:30pm 12.1 8.7 7.8 75 2.1 NNW 15 19 8 10 1014.6 - 0.0
28/06:00pm 12.4 9.7 7.5 72 2.4 NNW 11 15 6 8 1014.7 1014.9 0.0
28/05:30pm 13.6 10.6 7.8 68 2.9 NNW 13 19 7 10 1014.5 - 0.0
28/05:00pm 15.2 11.9 8.2 63 3.5 WNW 15 22 8 12 1014.8 1015.0 0.0
28/04:30pm 16.1 12.4 8.1 59 4.1 WNW 17 24 9 13 1014.7 - 0.0
28/04:00pm 16.6 12.9 7.8 56 4.5 WNW 17 28 9 15 1014.8 1015.0 0.0
28/03:30pm 16.9 12.9 8.3 57 4.4 NW 19 30 10 16 1014.6 - 0.0
28/03:00pm 17.0 12.8 7.4 53 4.8 NW 19 26 10 14 1014.6 1014.8 0.0
28/02:30pm 17.2 13.6 8.4 56 4.5 NNW 17 26 9 14 1014.6 - 0.0
28/02:00pm 17.0 13.3 7.9 55 4.6 NW 17 26 9 14 1014.8 1015.0 0.0
28/01:30pm 16.6 13.8 8.6 59 4.1 NW 13 20 7 11 1015.2 - 0.0
28/01:00pm 15.8 12.4 7.6 58 4.1 NW 15 20 8 11 1015.9 1016.2 0.0
28/12:30pm 15.5 12.1 7.8 60 3.9 NW 15 22 8 12 1016.5 - 0.0
28/12:00pm 15.2 11.6 8.2 63 3.5 WNW 17 28 9 15 1017.1 1017.4 0.0
28/11:30am 13.7 9.7 6.6 62 3.4 WNW 17 26 9 14 1017.3 - 0.0
28/11:00am 12.9 9.1 5.8 62 3.4 WNW 15 24 8 13 1017.7 1018.0 0.0
28/10:30am 12.5 9.1 5.9 64 3.1 NW 13 26 7 14 1017.8 - 0.0
28/10:00am 11.8 8.8 5.9 67 2.8 NNW 11 17 6 9 1017.9 1018.2 0.0
28/09:30am 10.7 7.4 4.8 67 2.7 NNW 11 17 6 9 1017.8 - 0.0
28/09:00am 9.4 6.5 4.6 72 2.1 N 9 13 5 7 1017.7 1018.0 0.2
28/08:30am 8.5 5.5 3.9 73 2.0 NNW 9 13 5 7 1017.8 - 0.2
28/08:00am 7.4 4.5 4.7 83 1.2 NNW 9 17 5 9 1017.6 1017.9 0.2
28/07:30am 3.8 0.8 2.3 90 0.6 ENE 7 9 4 5 1017.5 - 0.2
28/07:00am 4.6 1.8 3.1 90 0.6 NE 7 11 4 6 1017.5 1017.8 0.2
28/06:30am 4.4 1.6 2.9 90 0.6 ENE 7 9 4 5 1017.5 - 0.2
28/06:00am 4.3 1.6 2.8 90 0.6 ENE 6 9 3 5 1017.6 1017.9 0.2
28/05:30am 5.1 2.5 3.0 86 0.9 NNE 6 9 3 5 1017.6 - 0.0
28/05:00am 6.0 3.3 3.7 85 1.0 NE 7 9 4 5 1017.6 1017.9 0.0
28/04:30am 6.1 3.4 3.8 85 1.0 NE 7 11 4 6 1017.7 - 0.0
28/04:00am 6.5 3.9 4.0 84 1.1 NE 7 11 4 6 1018.0 1018.3 0.0
28/03:30am 6.3 3.3 4.1 86 0.9 NE 9 13 5 7 1018.2 - 0.0
28/03:00am 6.4 3.5 4.6 88 0.8 NE 9 13 5 7 1018.5 1018.7 0.0
28/02:30am 6.6 3.7 4.8 88 0.8 NNE 9 13 5 7 1018.7 - 0.0
28/02:00am 6.7 4.2 4.9 88 0.8 NE 7 11 4 6 1018.9 1019.1 0.0
28/01:30am 7.2 4.4 5.2 87 0.9 NE 9 11 5 6 1019.1 - 0.0
28/01:00am 7.4 4.7 5.5 88 0.9 NE 9 11 5 6 1019.4 1019.6 0.0
28/12:30am 7.6 4.9 5.6 87 0.9 NNE 9 13 5 7 1019.9 - 0.0
28/12:00am 7.7 5.0 5.7 87 0.9 NNE 9 11 5 6 1020.2 1020.4 0.0
 
Date/Time
EST
Temp
°C
App
Temp
°C
Dew
Point
Rel
Hum
%
Delta-T
°C
Wind Press
QNH
hPa
Press
MSL
hPa
Rain
since 9 am
mm
Dir
 
Spd
km/h
Gust
km/h
Spd
kts
Gust
kts
27/11:30pm 8.3 5.6 5.8 84 1.1 NNE 9 13 5 7 1020.5 - 0.0
27/11:00pm 8.4 6.1 5.5 82 1.3 NE 7 11 4 6 1020.8 1021.0 0.0
27/10:30pm 9.5 6.8 5.7 77 1.7 N 9 13 5 7 1021.0 - 0.0
27/10:00pm 9.4 7.1 5.9 79 1.6 N 7 13 4 7 1021.4 1021.6 0.0
27/09:30pm 9.4 7.2 6.3 81 1.4 N 7 13 4 7 1021.4 - 0.0
27/09:00pm 9.4 7.4 7.0 85 1.1 NNE 7 11 4 6 1021.6 1021.8 0.0
27/08:30pm 9.0 7.2 7.1 88 0.9 N 6 9 3 5 1021.6 - 0.0
27/08:00pm 9.3 7.3 6.4 82 1.3 NE 6 6 3 3 1021.8 1022.0 0.0
27/07:30pm 11.3 9.3 7.2 76 2.0 N 7 13 4 7 1021.7 - 0.0
27/07:00pm 11.6 9.7 7.7 77 1.9 NNE 7 11 4 6 1021.6 1021.8 0.0
27/06:30pm 12.0 10.3 7.7 75 2.1 N 6 7 3 4 1021.6 - 0.0
27/06:00pm 12.5 10.6 7.6 72 2.4 N 7 13 4 7 1021.4 1021.6 0.0
27/05:30pm 13.6 10.6 7.8 68 2.9 N 13 17 7 9 1021.2 - 0.0
27/05:00pm 14.1 11.7 8.5 69 2.8 NNW 11 17 6 9 1021.8 1022.0 0.0
27/04:30pm 14.6 11.7 8.1 65 3.3 NW 13 19 7 10 1021.6 - 0.0
27/04:00pm 14.6 11.3 7.9 64 3.3 NW 15 24 8 13 1021.6 1021.8 0.0
27/03:30pm 14.9 11.6 8.2 64 3.4 NNW 15 24 8 13 1021.3 - 0.0
27/03:00pm 15.8 11.6 8.1 60 3.9 NNW 20 33 11 18 1021.6 1021.8 0.0
27/02:30pm 15.6 11.1 8.4 62 3.7 NNW 22 37 12 20 1021.3 - 0.0
27/02:00pm 15.6 11.3 7.9 60 3.9 NNW 20 35 11 19 1021.8 1022.0 0.0
27/01:30pm 15.2 11.0 8.4 64 3.5 NNW 20 32 11 17 1022.3 - 0.0
27/01:00pm 15.3 11.7 8.5 64 3.5 NNW 17 28 9 15 1023.0 1023.3 0.0
27/12:30pm 14.6 10.8 9.2 70 2.8 NNW 19 28 10 15 1024.0 - 0.0
27/12:00pm 14.4 11.1 9.4 72 2.6 NNW 17 28 9 15 1024.3 1024.6 0.0
27/11:30am 13.6 10.7 9.6 77 2.1 NNW 15 22 8 12 1024.9 - 0.0
27/11:00am 12.1 9.2 9.7 85 1.2 NNW 15 22 8 12 1025.3 1025.6 0.0
27/10:30am 10.1 7.6 9.6 97 0.3 NW 13 19 7 10 1025.8 - 0.0
27/10:00am 8.6 7.0 8.6 100 0.0 NNW 7 13 4 7 1026.0 1026.3 0.0
27/09:30am 7.3 5.0 7.3 100 0.0 NNW 9 15 5 8 1026.1 - 0.0
27/09:00am 4.5 3.3 4.5 100 0.0 CALM 0 0 0 0 1026.1 1026.4 0.0
27/08:30am 1.5 -0.3 1.5 100 0.0 CALM 0 0 0 0 1026.0 - 0.0
27/08:00am 0.4 -1.5 0.4 100 0.0 CALM 0 0 0 0 1025.8 1026.1 0.0
27/07:30am 0.0 -2.0 -0.1 99 0.0 CALM 0 0 0 0 1025.7 - 0.0
27/07:00am 0.3 -1.7 0.2 99 0.0 CALM 0 0 0 0 1025.7 1026.0 0.0
27/06:30am 0.3 -1.7 0.2 99 0.0 CALM 0 0 0 0 1025.6 - 0.0
27/06:00am 0.5 -1.4 0.4 99 0.0 CALM 0 0 0 0 1025.4 1025.7 0.0
27/05:30am 0.9 -1.7 0.9 100 0.0 SSE 4 6 2 3 1025.3 - 0.0
27/05:00am 0.9 -1.0 0.8 99 0.0 CALM 0 0 0 0 1025.5 1025.8 0.0
27/04:30am 1.2 -0.6 1.1 99 0.0 CALM 0 0 0 0 1025.6 - 0.0
27/04:00am 1.6 -0.1 1.6 100 0.0 CALM 0 0 0 0 1025.6 1025.9 0.0
27/03:30am 2.0 -0.8 2.0 100 0.0 NNW 6 11 3 6 1025.7 - 0.0
27/03:00am 1.3 -0.5 1.2 99 0.0 CALM 0 0 0 0 1025.8 1026.1 0.0
27/02:30am 1.6 -0.2 1.5 99 0.0 CALM 0 0 0 0 1025.9 - 0.0
27/02:00am 1.8 0.1 1.7 99 0.0 CALM 0 0 0 0 1025.9 1026.2 0.0
27/01:30am 2.5 0.9 2.4 99 0.0 CALM 0 0 0 0 1025.9 - 0.0
27/01:00am 2.5 0.9 2.4 99 0.0 CALM 0 0 0 0 1025.9 1026.2 0.0
27/12:30am 3.0 1.1 2.9 99 0.0 ENE 2 6 1 3 1026.5 - 0.0
27/12:00am 3.6 2.2 3.5 99 0.0 CALM 0 0 0 0 1026.6 1026.8 0.0
 
Date/Time
EST
Temp
°C
App
Temp
°C
Dew
Point
Rel
Hum
%
Delta-T
°C
Wind Press
QNH
hPa
Press
MSL
hPa
Rain
since 9 am
mm
Dir
 
Spd
km/h
Gust
km/h
Spd
kts
Gust
kts
26/11:30pm 3.8 2.4 3.7 99 0.0 CALM 0 0 0 0 1026.8 - 0.0
26/11:00pm 4.0 2.7 3.9 99 0.0 CALM 0 0 0 0 1026.8 1027.0 0.0
26/10:30pm 4.3 3.0 4.2 99 0.0 CALM 0 0 0 0 1026.7 - 0.0
26/10:00pm 5.3 4.2 5.2 99 0.0 CALM 0 0 0 0 1026.7 1026.9 0.0
26/09:30pm 6.2 5.3 6.1 99 0.0 CALM 0 0 0 0 1026.8 - 0.0
26/09:00pm 6.3 5.4 6.2 99 0.0 CALM 0 0 0 0 1026.7 1026.9 0.0
26/08:30pm 6.8 6.0 6.7 99 0.0 CALM 0 0 0 0 1026.4 - 0.0
26/08:00pm 7.1 5.6 7.0 99 0.0 NW 4 7 2 4 1026.1 1026.4 0.0
26/07:30pm 8.3 7.5 8.0 98 0.1 W 2 6 1 3 1026.0 - 0.0
26/07:00pm 8.6 7.0 8.0 96 0.3 W 6 7 3 4 1025.9 1026.2 0.0
26/06:30pm 10.0 9.1 7.8 86 1.1 W 2 7 1 4 1025.6 - 0.0
26/06:00pm 11.5 10.3 8.0 79 1.7 WSW 4 7 2 4 1025.4 1025.7 0.0
26/05:30pm 12.1 10.3 8.0 76 2.0 WSW 7 11 4 6 1025.3 - 0.0
26/05:00pm 12.7 11.0 8.2 74 2.2 WSW 7 13 4 7 1025.0 1025.3 0.0
26/04:30pm 13.1 11.4 8.2 72 2.4 W 7 11 4 6 1024.8 - 0.0
26/04:00pm 13.9 11.2 7.4 65 3.2 WSW 11 20 6 11 1024.6 1024.9 0.0
26/03:30pm 14.1 11.1 7.6 65 3.2 WSW 13 20 7 11 1024.6 - 0.0
26/03:00pm 14.8 11.8 9.4 70 2.8 WSW 15 24 8 13 1024.4 1024.7 0.0
26/02:30pm 13.6 10.8 8.7 72 2.5 WSW 13 22 7 12 1024.3 - 0.0
26/02:00pm 15.1 12.3 9.9 71 2.7 W 15 24 8 13 1024.3 1024.6 0.0
26/01:30pm 13.2 10.2 9.3 77 2.0 WSW 15 26 8 14 1024.5 - 0.0
26/01:00pm 13.6 10.5 10.2 80 1.8 W 17 26 9 14 1024.8 1025.1 0.0
26/12:30pm 13.6 11.0 10.6 82 1.6 W 15 20 8 11 1025.0 - 0.0
26/12:00pm 13.0 10.5 10.9 87 1.1 W 15 26 8 14 1025.3 1025.6 0.0
26/11:30am 11.4 9.2 10.8 96 0.3 WSW 13 20 7 11 1025.5 - 0.0
26/11:00am 10.7 8.4 10.5 99 0.1 WSW 13 20 7 11 1025.7 1026.0 0.0
26/10:30am 10.1 7.7 10.1 100 0.0 WSW 13 20 7 11 1025.5 - 0.0
26/10:00am 9.9 7.8 9.9 100 0.0 WSW 11 15 6 8 1025.4 1025.7 0.0
26/09:30am 9.6 7.8 9.6 100 0.0 WSW 9 17 5 9 1025.1 - 0.0
26/09:00am 9.3 7.1 9.3 100 0.0 WSW 11 15 6 8 1025.0 1025.3 0.8
26/08:30am 9.1 7.8 9.1 100 0.0 W 6 9 3 5 1024.8 - 0.8
26/08:00am 8.7 7.3 8.7 100 0.0 W 6 7 3 4 1024.4 1024.7 0.8
26/07:30am 8.8 7.2 8.8 100 0.0 WNW 7 13 4 7 1024.0 - 0.8
26/07:00am 8.7 7.3 8.7 100 0.0 W 6 9 3 5 1023.8 1024.1 0.8
26/06:30am 8.5 7.0 8.5 100 0.0 NW 6 9 3 5 1023.4 - 0.8
26/06:00am 8.3 7.2 8.3 100 0.0 W 4 9 2 5 1023.0 1023.3 0.8
26/05:30am 8.5 7.0 8.5 100 0.0 W 6 9 3 5 1022.9 - 0.8
26/05:00am 8.2 6.5 8.2 100 0.0 WNW 7 9 4 5 1022.5 1022.8 0.8
26/04:30am 8.1 6.3 8.1 100 0.0 WNW 7 9 4 5 1022.1 - 0.8
26/04:00am 8.2 6.6 8.2 100 0.0 WNW 6 9 3 5 1022.1 1022.4 0.8
26/03:30am 8.6 7.1 8.6 100 0.0 W 6 6 3 3 1022.1 - 0.8
26/03:00am 8.7 7.3 8.7 100 0.0 W 6 9 3 5 1022.2 1022.5 0.8
26/02:30am 9.0 7.1 8.9 99 0.0 W 9 13 5 7 1022.1 - 0.8
26/02:00am 9.0 6.7 9.0 100 0.0 WNW 11 15 6 8 1022.1 1022.4 0.8
26/01:30am 9.0 6.7 8.9 99 0.0 WNW 11 15 6 8 1021.8 - 0.8
26/01:00am 9.1 7.6 9.0 99 0.0 WNW 7 11 4 6 1021.8 1022.0 0.8
26/12:30am 9.3 7.1 9.2 99 0.0 WNW 11 15 6 8 1022.0 - 0.8
26/12:00am 9.1 7.2 9.0 99 0.0 WNW 9 15 5 8 1022.0 1022.2 0.6
 
Date/Time
EST
Temp
°C
App
Temp
°C
Dew
Point
Rel
Hum
%
Delta-T
°C
Wind Press
QNH
hPa
Press
MSL
hPa
Rain
since 9 am
mm
Dir
 
Spd
km/h
Gust
km/h
Spd
kts
Gust
kts
25/11:30pm 9.1 6.8 9.0 99 0.0 WNW 11 15 6 8 1021.9 - 0.6
25/11:00pm 9.7 7.2 9.7 100 0.0 WNW 13 17 7 9 1021.6 1021.8 0.6
25/10:30pm 9.7 8.0 9.7 100 0.0 WNW 9 13 5 7 1021.4 - 0.6
25/10:00pm 9.4 7.9 9.3 99 0.0 NW 7 11 4 6 1021.3 1021.5 0.6
25/09:30pm 9.8 8.6 9.7 99 0.1 NW 6 9 3 5 1020.9 - 0.6
25/09:00pm 10.1 9.0 9.9 99 0.1 NNW 6 6 3 3 1020.8 1021.0 0.6
25/08:30pm 10.1 9.7 9.9 99 0.1 N 2 7 1 4 1020.7 - 0.6

Other Formats:

Comma delimited format used in spreadsheet applications
http://www.bom.gov.au/fwo/IDV60801/IDV60801.94839.axf

JavaScript Object Notation format (JSON) in row-major order
http://www.bom.gov.au/fwo/IDV60801/IDV60801.94839.json